Time;durP1;ratioP1;P1;durP2;ratioP2;P2;SDS_P1;SDS_P2;PMS_P1;PMS_P2;Temp;Humidity;BMP_temperature;BMP_pressure;BME280_temperature;BME280_humidity;BME280_pressure;Samples;Min_cycle;Max_cycle;Signal;HPM_P1;HPM_P2
2022/07/23 00:00:00;;;;;;;10.05;7.50;;;;;;;19.51;87.20;98422.28;5106908;28;20342;-68
2022/07/23 00:02:25;;;;;;;10.73;7.45;;;;;;;19.34;87.98;98425.06;5106828;28;20084;-68
2022/07/23 00:04:50;;;;;;;11.45;6.95;;;;;;;19.33;89.18;98418.00;5106828;28;20208;-68
2022/07/23 00:07:16;;;;;;;13.00;7.78;;;;;;;19.26;90.06;98427.31;5106868;28;20024;-68
2022/07/23 00:09:41;;;;;;;11.75;7.03;;;;;;;19.21;90.29;98424.03;5106794;28;20026;-68
2022/07/23 00:12:07;;;;;;;8.77;6.68;;;;;;;19.12;90.04;98419.22;5106745;28;20042;-68
2022/07/23 00:14:32;;;;;;;10.65;7.55;;;;;;;19.10;89.69;98415.75;5106611;28;20020;-68
2022/07/23 00:16:58;;;;;;;13.30;7.70;;;;;;;19.05;89.19;98421.34;5106630;28;20207;-68
2022/07/23 00:19:23;;;;;;;12.13;7.00;;;;;;;19.11;88.62;98421.00;5106570;28;20024;-68
2022/07/23 00:21:48;;;;;;;11.27;7.45;;;;;;;18.94;90.36;98430.91;5106541;28;20083;-68
2022/07/23 00:24:14;;;;;;;12.52;7.35;;;;;;;18.93;91.52;98426.53;5106424;28;20016;-68
2022/07/23 00:26:39;;;;;;;10.38;7.32;;;;;;;18.94;91.52;98441.56;5106477;28;20020;-68
2022/07/23 00:29:05;;;;;;;12.18;7.85;;;;;;;18.83;92.06;98444.00;5106179;28;20352;-68
2022/07/23 00:31:30;;;;;;;13.25;7.45;;;;;;;18.88;91.00;98447.25;5106326;28;20211;-68
2022/07/23 00:34:00;;;;;;;18.85;7.25;;;;;;;18.95;90.04;98454.81;5106333;28;20023;-68
2022/07/23 00:36:27;;;;;;;15.98;7.28;;;;;;;19.08;90.03;98457.69;5106196;28;20020;-68
2022/07/23 00:38:53;;;;;;;15.07;6.82;;;;;;;19.19;89.42;98466.81;5106430;28;20024;-68
2022/07/23 00:41:18;;;;;;;12.65;7.43;;;;;;;19.19;89.66;98463.25;5106080;28;20028;-68
2022/07/23 00:43:43;;;;;;;11.18;7.53;;;;;;;19.14;89.60;98452.84;5106038;28;20028;-68
2022/07/23 00:46:09;;;;;;;10.90;7.65;;;;;;;19.16;89.58;98455.44;5106123;28;20061;-68
2022/07/23 00:48:34;;;;;;;12.75;7.10;;;;;;;19.21;88.91;98450.72;5106053;28;20024;-68
2022/07/23 00:51:00;;;;;;;9.77;6.53;;;;;;;19.28;88.84;98436.09;5105940;28;20438;-68
2022/07/23 00:53:25;;;;;;;12.57;7.70;;;;;;;19.22;90.34;98436.41;5105944;28;20238;-68
2022/07/23 00:55:51;;;;;;;12.45;6.97;;;;;;;19.24;90.74;98451.38;5105878;28;20091;-68
2022/07/23 00:58:17;;;;;;;10.43;7.47;;;;;;;19.35;90.20;98464.16;5105819;28;20082;-68
2022/07/23 01:00:42;;;;;;;10.43;7.43;;;;;;;19.45;90.63;98465.34;5105801;28;20035;-68
2022/07/23 01:03:08;;;;;;;12.65;7.10;;;;;;;19.51;89.47;98456.97;5105656;28;20022;-68
2022/07/23 01:05:34;;;;;;;9.65;6.68;;;;;;;19.42;89.36;98454.84;5105920;28;20234;-68
2022/07/23 01:08:00;;;;;;;10.18;7.22;;;;;;;19.27;89.25;98456.56;5105456;28;20031;-68
2022/07/23 01:10:31;;;;;;;10.57;7.80;;;;;;;19.21;90.16;98440.03;5105579;28;20197;-68
2022/07/23 01:13:02;;;;;;;12.18;7.72;;;;;;;19.18;90.34;98434.88;5105597;28;20020;-68
2022/07/23 01:15:28;;;;;;;13.73;7.43;;;;;;;19.24;89.08;98424.69;5105725;28;20184;-68
2022/07/23 01:17:54;;;;;;;9.13;6.93;;;;;;;19.23;90.19;98438.13;5105462;28;20247;-68
2022/07/23 01:20:19;;;;;;;12.48;8.05;;;;;;;19.17;91.29;98411.78;5105447;28;20024;-68
2022/07/23 01:22:45;;;;;;;11.98;6.47;;;;;;;19.17;89.99;98401.97;5105388;28;20066;-68
2022/07/23 01:25:10;;;;;;;9.60;6.85;;;;;;;19.28;89.09;98398.72;5105306;28;20031;-68
2022/07/23 01:27:36;;;;;;;10.27;6.60;;;;;;;19.26;89.27;98389.94;5105446;28;20232;-68
2022/07/23 01:30:03;;;;;;;12.23;6.97;;;;;;;19.19;90.00;98372.53;5105027;28;20116;-68
2022/07/23 01:32:28;;;;;;;14.50;7.50;;;;;;;19.07;90.52;98363.44;5105125;28;20020;-68
2022/07/23 01:34:54;;;;;;;9.48;6.85;;;;;;;19.04;91.45;98349.41;5105159;28;20020;-68
2022/07/23 01:37:19;;;;;;;10.18;6.85;;;;;;;19.10;90.69;98346.38;5105101;28;20087;-68
2022/07/23 01:39:44;;;;;;;9.07;6.72;;;;;;;19.28;88.46;98345.34;5105300;28;20023;-68
2022/07/23 01:42:10;;;;;;;12.35;6.97;;;;;;;19.44;87.09;98362.19;5105030;28;20024;-68
2022/07/23 01:44:35;;;;;;;10.57;7.72;;;;;;;19.51;88.07;98374.22;5104850;28;20091;-68
2022/07/23 01:47:00;;;;;;;13.77;6.90;;;;;;;19.51;88.88;98386.69;5104901;28;20027;-68
2022/07/23 01:49:26;;;;;;;11.20;7.22;;;;;;;19.53;87.97;98384.81;5104904;28;20103;-68
2022/07/23 01:52:00;;;;;;;12.30;6.93;;;;;;;19.56;86.54;98397.97;5104818;28;20047;-68
2022/07/23 01:54:31;;;;;;;8.57;6.30;;;;;;;19.54;87.80;98406.06;5104800;28;20016;-68
2022/07/23 01:56:57;;;;;;;14.03;7.53;;;;;;;19.49;87.59;98405.47;5104758;28;20046;-68
2022/07/23 01:59:24;;;;;;;10.20;7.38;;;;;;;19.43;88.93;98405.84;5104660;28;20252;-68
2022/07/23 02:01:50;;;;;;;9.43;6.72;;;;;;;19.34;90.25;98406.38;5104701;28;20024;-68
2022/07/23 02:04:17;;;;;;;11.13;7.40;;;;;;;19.31;90.86;98419.03;5104786;28;20024;-68
2022/07/23 02:06:42;;;;;;;10.32;7.40;;;;;;;19.24;92.00;98429.19;5104779;28;20020;-68
2022/07/23 02:09:08;;;;;;;14.60;7.70;;;;;;;19.19;93.11;98425.91;5104531;28;20043;-68
2022/07/23 02:11:33;;;;;;;16.17;7.20;;;;;;;19.19;92.75;98437.44;5104557;28;20023;-68
2022/07/23 02:13:59;;;;;;;12.77;7.50;;;;;;;19.14;93.54;98428.84;5104405;28;20020;-68
2022/07/23 02:16:24;;;;;;;14.65;6.95;;;;;;;19.14;92.45;98425.28;5104435;28;20065;-68
2022/07/23 02:18:49;;;;;;;10.93;7.65;;;;;;;19.07;92.61;98410.59;5104094;28;20019;-68
2022/07/23 02:21:15;;;;;;;10.00;7.47;;;;;;;19.06;93.08;98414.22;5104178;28;20134;-68
2022/07/23 02:23:40;;;;;;;14.35;7.43;;;;;;;19.15;94.00;98435.03;5104312;28;20024;-68
2022/07/23 02:26:06;;;;;;;16.23;7.80;;;;;;;19.21;94.84;98445.38;5104409;28;20065;-68
2022/07/23 02:28:31;;;;;;;10.57;7.95;;;;;;;19.14;96.34;98439.50;5103999;28;20062;-68
2022/07/23 02:30:56;;;;;;;11.63;7.70;;;;;;;19.03;97.25;98444.59;5104238;28;20305;-68
2022/07/23 02:33:22;;;;;;;14.98;8.52;;;;;;;18.94;98.25;98431.78;5104208;28;20016;-68
2022/07/23 02:35:47;;;;;;;10.60;7.35;;;;;;;18.79;98.57;98421.06;5104190;28;20024;-68
2022/07/23 02:38:12;;;;;;;9.82;7.80;;;;;;;18.72;98.75;98411.69;5104167;28;20027;-68
2022/07/23 02:40:38;;;;;;;14.50;8.57;;;;;;;18.71;99.10;98391.31;5104177;28;20027;-68
2022/07/23 02:43:03;;;;;;;14.75;8.15;;;;;;;18.66;99.42;98382.72;5103960;28;20027;-68
2022/07/23 02:45:29;;;;;;;14.43;9.43;;;;;;;18.69;98.04;98377.22;5104075;28;20189;-68
2022/07/23 02:47:54;;;;;;;11.70;8.68;;;;;;;18.77;97.51;98369.66;5104296;28;20016;-68
2022/07/23 02:50:19;;;;;;;15.05;8.27;;;;;;;18.81;97.38;98371.19;5104284;28;20020;-68
2022/07/23 02:52:45;;;;;;;11.18;8.52;;;;;;;18.85;97.70;98380.75;5103996;28;20015;-68
2022/07/23 02:55:10;;;;;;;16.00;9.57;;;;;;;18.77;100.00;98396.31;5104079;28;20024;-68
2022/07/23 02:57:36;;;;;;;11.75;8.50;;;;;;;18.76;100.00;98411.44;5104269;28;20046;-68
2022/07/23 03:00:04;;;;;;;13.05;8.80;;;;;;;18.80;100.00;98418.31;5104142;28;20354;-68
2022/07/23 03:02:29;;;;;;;14.20;9.77;;;;;;;18.75;100.00;98424.88;5103850;28;20269;-68
2022/07/23 03:04:55;;;;;;;15.95;9.88;;;;;;;18.64;100.00;98417.44;5103887;28;20024;-68
2022/07/23 03:07:20;;;;;;;11.70;8.95;;;;;;;18.59;100.00;98427.53;5103835;28;20095;-68
2022/07/23 03:09:46;;;;;;;16.02;9.70;;;;;;;18.66;100.00;98426.25;5103905;28;20020;-68
2022/07/23 03:12:11;;;;;;;18.95;9.90;;;;;;;18.67;100.00;98432.44;5103874;28;20257;-68
2022/07/23 03:14:37;;;;;;;12.50;9.48;;;;;;;18.62;100.00;98440.69;5103857;28;20027;-68
2022/07/23 03:17:02;;;;;;;13.02;10.18;;;;;;;18.66;100.00;98446.69;5103753;28;20040;-68
2022/07/23 03:19:28;;;;;;;12.00;9.02;;;;;;;18.61;100.00;98436.28;5103993;28;20083;-68
2022/07/23 03:21:53;;;;;;;13.48;9.88;;;;;;;18.66;100.00;98430.69;5104006;28;20299;-68
2022/07/23 03:24:18;;;;;;;16.08;10.32;;;;;;;18.65;100.00;98445.00;5103657;28;20026;-68
2022/07/23 03:26:44;;;;;;;15.13;9.73;;;;;;;18.65;100.00;98442.31;5103671;28;20246;-68
2022/07/23 03:29:10;;;;;;;13.00;9.73;;;;;;;18.62;100.00;98440.69;5103521;28;20040;-68
2022/07/23 03:31:36;;;;;;;13.88;10.50;;;;;;;18.68;100.00;98431.50;5106369;28;20211;-68
2022/07/23 03:34:01;;;;;;;16.98;9.70;;;;;;;18.69;100.00;98441.19;5107504;28;20020;-68
2022/07/23 03:36:26;;;;;;;18.27;9.80;;;;;;;18.69;100.00;98434.06;5107461;28;20220;-68
2022/07/23 03:38:53;;;;;;;14.90;9.35;;;;;;;18.68;100.00;98423.50;5107366;28;20016;-68
2022/07/23 03:41:19;;;;;;;15.77;9.23;;;;;;;18.65;100.00;98423.66;5107337;28;20027;-68
2022/07/23 03:43:45;;;;;;;15.00;9.25;;;;;;;18.60;100.00;98428.38;5107214;28;20224;-68
2022/07/23 03:46:11;;;;;;;17.63;10.32;;;;;;;18.62;100.00;98439.81;5107278;28;20024;-68
2022/07/23 03:48:36;;;;;;;15.43;11.18;;;;;;;18.68;100.00;98450.16;5107303;28;20024;-68
2022/07/23 03:51:01;;;;;;;16.27;10.30;;;;;;;18.68;100.00;98466.16;5107159;28;20028;-68
2022/07/23 03:53:27;;;;;;;17.60;10.40;;;;;;;18.65;100.00;98455.66;5107144;28;20050;-68
2022/07/23 03:55:52;;;;;;;15.50;10.50;;;;;;;18.61;100.00;98459.44;5107092;28;20214;-68
2022/07/23 03:58:17;;;;;;;14.93;10.45;;;;;;;18.59;100.00;98471.97;5106964;28;20087;-68
2022/07/23 04:00:43;;;;;;;13.65;10.10;;;;;;;18.60;100.00;98455.03;5107085;28;20012;-68
2022/07/23 04:03:08;;;;;;;15.38;9.77;;;;;;;18.52;100.00;98449.25;5106873;28;20024;-68
2022/07/23 04:05:34;;;;;;;15.65;10.10;;;;;;;18.56;100.00;98448.16;5107151;28;20020;-68
2022/07/23 04:07:59;;;;;;;15.10;10.60;;;;;;;18.55;100.00;98447.31;5107088;28;20020;-68
2022/07/23 04:10:24;;;;;;;13.85;10.30;;;;;;;18.61;100.00;98444.28;5106774;28;20266;-68
2022/07/23 04:12:50;;;;;;;17.02;10.57;;;;;;;18.68;100.00;98444.81;5106684;28;20054;-68
2022/07/23 04:15:15;;;;;;;15.90;10.68;;;;;;;18.67;100.00;98448.44;5106730;28;20031;-68
2022/07/23 04:17:41;;;;;;;15.10;10.15;;;;;;;18.61;100.00;98448.78;5106591;28;20062;-68
2022/07/23 04:20:07;;;;;;;17.23;10.18;;;;;;;18.54;100.00;98447.38;5106643;28;20099;-68
2022/07/23 04:22:32;;;;;;;21.65;10.68;;;;;;;18.54;100.00;98444.72;5106747;28;20024;-68
2022/07/23 04:24:57;;;;;;;14.43;10.20;;;;;;;18.53;100.00;98445.66;5106514;28;20331;-68
2022/07/23 04:27:23;;;;;;;17.17;10.07;;;;;;;18.53;100.00;98441.19;5106319;28;20027;-68
2022/07/23 04:29:49;;;;;;;15.25;10.65;;;;;;;18.57;100.00;98458.72;5106310;28;20036;-68
2022/07/23 04:32:14;;;;;;;17.40;10.70;;;;;;;18.57;100.00;98473.88;5106430;28;20216;-68
2022/07/23 04:34:39;;;;;;;13.63;11.13;;;;;;;18.56;100.00;98478.34;5106365;28;20069;-68
2022/07/23 04:37:05;;;;;;;14.73;10.73;;;;;;;18.59;100.00;98485.31;5106317;28;20020;-68
2022/07/23 04:39:30;;;;;;;16.70;10.50;;;;;;;18.60;100.00;98495.00;5106235;28;20044;-68
2022/07/23 04:41:56;;;;;;;12.93;9.98;;;;;;;18.66;100.00;98500.00;5105732;28;20028;-68
2022/07/23 04:44:21;;;;;;;18.10;11.30;;;;;;;18.68;100.00;98500.81;5105968;28;20376;-68
2022/07/23 04:46:46;;;;;;;14.55;10.40;;;;;;;18.74;100.00;98498.69;5106170;28;20031;-68
2022/07/23 04:49:12;;;;;;;16.38;11.55;;;;;;;18.75;100.00;98505.72;5106145;28;20315;-68
2022/07/23 04:51:37;;;;;;;16.40;11.55;;;;;;;18.75;100.00;98511.06;5106039;28;20342;-68
2022/07/23 04:54:03;;;;;;;17.42;12.15;;;;;;;18.78;100.00;98515.34;5105919;28;20024;-68
2022/07/23 04:56:28;;;;;;;16.55;12.23;;;;;;;18.77;100.00;98508.31;5105922;28;20030;-68
2022/07/23 04:58:53;;;;;;;14.80;11.38;;;;;;;18.79;100.00;98509.94;5105861;28;20027;-68
2022/07/23 05:01:19;;;;;;;16.48;11.25;;;;;;;18.79;100.00;98509.06;5105831;28;20019;-68
2022/07/23 05:03:44;;;;;;;19.77;11.25;;;;;;;18.96;100.00;98514.38;5105693;28;20339;-68
2022/07/23 05:06:09;;;;;;;15.52;10.95;;;;;;;19.08;100.00;98514.53;5105735;28;20035;-68
2022/07/23 05:08:35;;;;;;;16.90;11.13;;;;;;;19.14;100.00;98524.88;5105663;28;20215;-68
2022/07/23 05:11:00;;;;;;;12.18;10.05;;;;;;;19.26;100.00;98528.72;5105591;28;20031;-68
2022/07/23 05:13:26;;;;;;;14.05;10.32;;;;;;;19.31;100.00;98540.00;5105618;28;20020;-68
2022/07/23 05:15:51;;;;;;;17.02;11.07;;;;;;;19.31;100.00;98557.81;5105527;28;20034;-68
2022/07/23 05:18:17;;;;;;;18.17;10.93;;;;;;;19.24;100.00;98568.78;5105516;28;20278;-68
2022/07/23 05:20:42;;;;;;;16.83;10.85;;;;;;;19.27;100.00;98566.94;5105449;28;20023;-68
2022/07/23 05:23:08;;;;;;;13.63;10.05;;;;;;;19.21;100.00;98562.78;5105279;28;20024;-68
2022/07/23 05:25:33;;;;;;;17.70;11.48;;;;;;;19.14;100.00;98556.91;5105333;28;20024;-68
2022/07/23 05:27:59;;;;;;;16.92;10.75;;;;;;;19.09;100.00;98552.78;5105137;28;22220;-68
2022/07/23 05:30:24;;;;;;;16.42;11.98;;;;;;;19.06;100.00;98564.47;5105245;28;20035;-68
2022/07/23 05:32:49;;;;;;;22.42;11.40;;;;;;;19.09;100.00;98564.31;5105241;28;20331;-68
2022/07/23 05:35:15;;;;;;;14.82;11.23;;;;;;;19.18;100.00;98565.63;5105067;28;20027;-68
2022/07/23 05:37:40;;;;;;;16.80;11.15;;;;;;;19.22;100.00;98564.50;5105084;28;20039;-68
2022/07/23 05:40:08;;;;;;;16.58;10.93;;;;;;;19.32;100.00;98560.41;5105166;28;20404;-68
2022/07/23 05:42:42;;;;;;;21.95;11.15;;;;;;;19.37;100.00;98568.16;5104913;28;20020;-68
2022/07/23 05:45:08;;;;;;;20.98;13.00;;;;;;;19.46;100.00;98568.53;5104979;28;20033;-68
2022/07/23 05:47:47;;;;;;;14.10;11.13;;;;;;;19.64;100.00;98578.16;5104931;28;20058;-68
2022/07/23 05:50:14;;;;;;;18.25;10.98;;;;;;;19.91;100.00;98576.59;5104817;28;20027;-68
2022/07/23 05:52:39;;;;;;;17.17;11.57;;;;;;;20.48;99.19;98562.50;5104883;28;20023;-68
2022/07/23 05:55:06;;;;;;;19.17;11.63;;;;;;;20.58;96.84;98574.38;5104031;28;20095;-68
2022/07/23 05:57:31;;;;;;;15.18;10.55;;;;;;;20.85;95.43;98569.16;5104699;28;20019;-68
2022/07/23 05:59:57;;;;;;;15.30;10.77;;;;;;;20.86;95.63;98573.53;5104710;28;20031;-68
2022/07/23 06:02:22;;;;;;;15.48;10.80;;;;;;;21.03;93.79;98576.94;5104703;28;20058;-68
2022/07/23 06:04:47;;;;;;;17.65;10.13;;;;;;;21.29;93.28;98576.16;5104604;28;20100;-68
2022/07/23 06:07:13;;;;;;;10.93;9.15;;;;;;;21.65;90.22;98575.63;5104615;28;20047;-68
2022/07/23 06:09:38;;;;;;;14.13;9.20;;;;;;;22.14;88.34;98574.13;5104690;28;20043;-68
2022/07/23 06:12:04;;;;;;;21.20;10.00;;;;;;;22.27;89.43;98577.72;5104502;28;20034;-68
2022/07/23 06:14:29;;;;;;;14.73;10.10;;;;;;;22.25;88.20;98581.47;5104437;28;20016;-68
2022/07/23 06:16:55;;;;;;;16.08;9.32;;;;;;;22.01;86.38;98583.09;5104432;28;20030;-68
2022/07/23 06:19:20;;;;;;;15.73;9.20;;;;;;;21.74;85.83;98579.56;5104448;28;20251;-68
2022/07/23 06:21:45;;;;;;;15.93;10.07;;;;;;;21.46;89.25;98582.25;5104332;28;20046;-68
2022/07/23 06:24:11;;;;;;;15.13;9.85;;;;;;;21.10;89.67;98572.91;5104251;28;20020;-68
2022/07/23 06:26:36;;;;;;;15.57;9.20;;;;;;;20.92;90.93;98578.50;5104357;28;20330;-68
2022/07/23 06:29:02;;;;;;;17.27;9.32;;;;;;;20.78;92.36;98576.69;5104472;28;20039;-68
2022/07/23 06:31:27;;;;;;;22.45;10.80;;;;;;;20.71;93.97;98585.16;5104500;28;20087;-68
2022/07/23 06:33:52;;;;;;;16.13;9.82;;;;;;;20.65;95.66;98583.72;5104251;28;20016;-68
2022/07/23 06:36:18;;;;;;;15.95;9.80;;;;;;;20.70;95.58;98586.13;5104161;28;20038;-68
2022/07/23 06:38:43;;;;;;;23.23;9.52;;;;;;;20.68;95.10;98580.88;5104175;28;20062;-68
2022/07/23 06:41:09;;;;;;;15.68;9.40;;;;;;;20.63;95.86;98582.94;5104437;28;20020;-68
2022/07/23 06:43:34;;;;;;;14.27;9.40;;;;;;;20.70;94.99;98587.00;5104066;28;20020;-68
2022/07/23 06:45:59;;;;;;;14.43;9.70;;;;;;;20.78;94.29;98582.03;5104073;28;20020;-68
2022/07/23 06:48:25;;;;;;;15.98;10.02;;;;;;;20.99;96.10;98580.75;5104390;28;20020;-68
2022/07/23 06:50:52;;;;;;;13.30;9.73;;;;;;;21.52;90.44;98595.25;5104107;28;20331;-68
2022/07/23 06:53:17;;;;;;;13.30;9.13;;;;;;;21.53;89.95;98602.31;5104273;28;20342;-68
2022/07/23 06:55:43;;;;;;;15.05;9.20;;;;;;;21.60;89.68;98609.00;5104006;28;20039;-68
2022/07/23 06:58:09;;;;;;;15.82;9.93;;;;;;;21.60;89.75;98611.69;5104065;28;20024;-68
2022/07/23 07:00:35;;;;;;;15.52;9.98;;;;;;;21.74;91.06;98617.06;5104184;28;20016;-68
2022/07/23 07:03:00;;;;;;;15.57;10.88;;;;;;;21.86;92.38;98618.97;5103875;28;20345;-68
2022/07/23 07:05:27;;;;;;;16.38;10.13;;;;;;;21.90;90.98;98617.78;5104552;28;20043;-68
2022/07/23 07:07:54;;;;;;;13.60;10.40;;;;;;;22.11;90.88;98624.44;5108257;28;20023;-68
2022/07/23 07:10:19;;;;;;;15.30;10.52;;;;;;;22.37;89.87;98618.19;5107976;28;20042;-68
2022/07/23 07:12:45;;;;;;;16.38;9.77;;;;;;;23.04;87.11;98626.09;5107969;28;20015;-68
2022/07/23 07:15:11;;;;;;;14.25;10.30;;;;;;;23.09;83.31;98613.19;5107879;28;20315;-68
2022/07/23 07:17:37;;;;;;;16.42;10.15;;;;;;;23.04;85.04;98615.34;5107931;28;20027;-68
2022/07/23 07:20:02;;;;;;;15.25;9.73;;;;;;;23.42;83.58;98620.72;5107784;28;20083;-68
2022/07/23 07:22:28;;;;;;;13.38;9.65;;;;;;;23.68;81.66;98623.25;5107646;28;20024;-68
2022/07/23 07:24:53;;;;;;;16.80;10.38;;;;;;;24.38;79.87;98629.72;5107647;28;20083;-68
2022/07/23 07:27:19;;;;;;;15.57;10.55;;;;;;;24.95;78.58;98626.19;5107546;28;20327;-68
2022/07/23 07:29:44;;;;;;;16.75;10.75;;;;;;;26.20;73.63;98620.59;5107535;28;20031;-68
2022/07/23 07:32:09;;;;;;;16.27;9.65;;;;;;;26.16;72.49;98627.22;5107574;28;20031;-68
2022/07/23 07:34:35;;;;;;;19.48;10.13;;;;;;;25.73;73.24;98628.97;5107549;28;20020;-68
2022/07/23 07:37:00;;;;;;;12.95;9.30;;;;;;;26.30;70.98;98629.63;5107437;28;20215;-68
2022/07/23 07:39:25;;;;;;;17.65;10.85;;;;;;;25.73;72.07;98628.97;5107347;28;20091;-68
2022/07/23 07:41:51;;;;;;;12.82;9.90;;;;;;;25.75;71.92;98627.84;5107369;28;20031;-68
2022/07/23 07:44:16;;;;;;;14.10;10.68;;;;;;;26.48;71.78;98638.91;5107305;28;20035;-68
2022/07/23 07:46:41;;;;;;;14.02;9.73;;;;;;;26.52;69.51;98632.25;5107286;28;20028;-68
2022/07/23 07:49:07;;;;;;;14.27;9.70;;;;;;;26.13;70.12;98636.41;5107178;28;20396;-68
2022/07/23 07:51:33;;;;;;;12.60;9.90;;;;;;;25.53;72.76;98635.09;5107158;28;20043;-68
2022/07/23 07:53:58;;;;;;;15.38;11.10;;;;;;;25.21;73.04;98633.06;5107167;28;20019;-68
2022/07/23 07:56:23;;;;;;;13.95;10.25;;;;;;;25.30;74.36;98636.88;5107120;28;20020;-68
2022/07/23 07:58:49;;;;;;;13.55;10.60;;;;;;;25.32;72.71;98639.50;5107060;28;20061;-68
2022/07/23 08:01:14;;;;;;;16.45;10.20;;;;;;;25.90;72.17;98647.31;5106971;28;20365;-68
2022/07/23 08:03:40;;;;;;;15.65;10.55;;;;;;;26.49;70.66;98651.41;5107158;28;20107;-68
2022/07/23 08:06:06;;;;;;;15.43;9.73;;;;;;;28.17;62.58;98652.81;5106870;28;20322;-68
2022/07/23 08:08:31;;;;;;;15.80;9.10;;;;;;;29.56;59.09;98650.56;5106860;28;20258;-68
2022/07/23 08:10:57;;;;;;;15.55;9.80;;;;;;;29.30;55.65;98639.50;5106737;28;20019;-68
2022/07/23 08:13:22;;;;;;;11.95;9.27;;;;;;;28.33;59.35;98647.72;5106773;28;20061;-68
2022/07/23 08:15:47;;;;;;;14.27;10.20;;;;;;;27.58;61.17;98637.47;5106727;28;20047;-68
2022/07/23 08:18:13;;;;;;;12.70;9.60;;;;;;;26.81;63.44;98642.38;5105749;28;20024;-68
2022/07/23 08:20:38;;;;;;;13.85;9.25;;;;;;;27.10;62.17;98631.75;5106888;28;20204;-68
2022/07/23 08:23:08;;;;;;;14.43;9.60;;;;;;;28.20;60.16;98647.13;5106482;28;20024;-68
2022/07/23 08:25:36;;;;;;;19.33;10.00;;;;;;;29.24;58.08;98640.09;5106544;28;20215;-68
2022/07/23 08:28:04;;;;;;;14.95;9.65;;;;;;;29.82;57.06;98641.66;5106244;28;20040;-68
2022/07/23 08:30:31;;;;;;;13.30;10.32;;;;;;;30.66;55.22;98659.50;5106464;28;20020;-68
2022/07/23 08:33:01;;;;;;;13.82;9.63;;;;;;;30.55;54.93;98652.41;5106401;28;20020;-68
2022/07/23 08:35:32;;;;;;;14.00;9.27;;;;;;;31.70;50.96;98652.22;5106374;28;20041;-68
2022/07/23 08:37:59;;;;;;;12.43;9.20;;;;;;;31.83;50.10;98647.25;5106350;28;20054;-68
2022/07/23 08:40:30;;;;;;;15.68;9.68;;;;;;;30.23;52.98;98645.75;5106284;28;20054;-68
2022/07/23 08:42:55;;;;;;;16.27;10.50;;;;;;;30.86;51.10;98655.63;5106177;28;20031;-68
2022/07/23 08:45:22;;;;;;;14.88;10.15;;;;;;;30.77;52.93;98651.13;5106174;28;20024;-68
2022/07/23 08:47:50;;;;;;;20.02;10.02;;;;;;;32.17;49.67;98656.25;5106149;28;20272;-68
2022/07/23 08:50:16;;;;;;;18.45;9.63;;;;;;;33.31;46.67;98658.22;5106083;28;20035;-68
2022/07/23 08:52:41;;;;;;;17.85;9.77;;;;;;;33.49;45.23;98656.16;5106007;28;20016;-68
2022/07/23 08:55:08;;;;;;;19.95;10.38;;;;;;;33.41;43.39;98650.72;5106071;28;20219;-68
2022/07/23 08:57:33;;;;;;;11.32;9.30;;;;;;;33.17;45.05;98651.56;5106154;28;20043;-68
2022/07/23 08:59:59;;;;;;;11.95;8.35;;;;;;;32.84;47.74;98656.09;5106071;28;20296;-68
2022/07/23 09:02:24;;;;;;;13.40;9.02;;;;;;;33.81;44.64;98656.09;5106060;28;20024;-68
2022/07/23 09:04:50;;;;;;;14.70;9.52;;;;;;;33.62;43.81;98656.53;5105939;28;20020;-68
2022/07/23 09:07:15;;;;;;;17.48;10.05;;;;;;;33.55;43.29;98655.47;5105743;28;20320;-68
2022/07/23 09:09:40;;;;;;;15.88;9.88;;;;;;;33.41;43.46;98653.47;5105697;28;20054;-68
2022/07/23 09:12:09;;;;;;;11.60;8.55;;;;;;;33.42;44.14;98650.56;5105688;28;20193;-68
2022/07/23 09:14:43;;;;;;;10.65;8.88;;;;;;;33.36;44.80;98650.34;5105501;28;20020;-68
2022/07/23 09:17:13;;;;;;;10.57;8.57;;;;;;;34.01;43.02;98652.00;5105550;28;20315;-68
2022/07/23 09:19:40;;;;;;;12.75;8.65;;;;;;;34.04;43.33;98651.66;5105460;28;20057;-68
2022/07/23 09:22:26;;;;;;;12.73;8.55;;;;;;;31.74;47.45;98637.28;5105491;28;20035;-68
2022/07/23 09:25:14;;;;;;;11.18;8.73;;;;;;;32.51;46.32;98648.91;5105221;28;20065;-68
2022/07/23 09:27:57;;;;;;;15.55;8.95;;;;;;;32.99;43.90;98643.56;5105271;28;20020;-68
2022/07/23 09:30:27;;;;;;;13.85;8.55;;;;;;;32.74;44.11;98649.97;5105395;28;20346;-68
2022/07/23 09:33:11;;;;;;;12.70;8.02;;;;;;;32.80;43.64;98643.84;5105228;28;20041;-68
2022/07/23 09:35:45;;;;;;;14.35;8.10;;;;;;;31.14;48.97;98646.38;5105292;28;20028;-68
2022/07/23 09:38:11;;;;;;;14.88;8.88;;;;;;;29.97;50.34;98642.00;5105187;28;20080;-68
2022/07/23 09:40:36;;;;;;;12.95;8.98;;;;;;;30.67;50.89;98655.75;5105118;28;20028;-68
2022/07/23 09:43:02;;;;;;;11.32;8.70;;;;;;;31.77;47.57;98653.31;5104976;28;20073;-68
2022/07/23 09:45:27;;;;;;;13.05;9.13;;;;;;;32.10;47.37;98644.31;5104977;28;20024;-68
2022/07/23 09:48:10;;;;;;;12.15;8.23;;;;;;;32.46;45.39;98662.16;5104952;28;20091;-68
2022/07/23 09:50:35;;;;;;;13.98;8.13;;;;;;;33.20;44.27;98658.53;5104958;28;20023;-68
2022/07/23 09:53:01;;;;;;;12.05;8.50;;;;;;;31.78;45.81;98649.56;5104858;28;20072;-68
2022/07/23 09:55:36;;;;;;;29.83;9.65;;;;;;;31.34;46.97;98647.91;5104799;28;20086;-68
2022/07/23 09:58:02;;;;;;;14.90;8.65;;;;;;;31.57;46.75;98656.41;5105009;28;20212;-68
2022/07/23 10:00:29;;;;;;;14.75;9.02;;;;;;;31.73;47.08;98660.06;5104733;28;20086;-68
2022/07/23 10:02:54;;;;;;;13.10;8.80;;;;;;;31.17;47.58;98648.78;5104844;28;20430;-68
2022/07/23 10:05:21;;;;;;;13.63;8.68;;;;;;;30.90;48.66;98646.16;5104608;28;20160;-68
2022/07/23 10:07:46;;;;;;;13.68;9.35;;;;;;;30.16;47.86;98647.34;5104638;28;20070;-68
2022/07/23 10:10:13;;;;;;;11.20;8.38;;;;;;;30.59;49.66;98652.97;5104594;28;20027;-68
2022/07/23 10:15:16;;;;;;;10.93;8.57;;;;;;;32.03;44.42;98656.88;5104498;28;20035;-68
2022/07/23 10:17:42;;;;;;;11.43;7.97;;;;;;;32.44;43.72;98658.78;5104394;28;20069;-68
2022/07/23 10:20:08;;;;;;;12.90;7.90;;;;;;;32.68;44.08;98661.53;5104467;28;20070;-68
2022/07/23 10:22:56;;;;;;;13.13;7.65;;;;;;;33.06;42.76;98660.09;5104312;28;20027;-68
2022/07/23 10:25:45;;;;;;;10.77;7.15;;;;;;;32.91;43.62;98657.19;5103788;28;20023;-68
2022/07/23 10:28:26;;;;;;;15.20;7.57;;;;;;;32.44;43.86;98653.31;5104157;28;20148;-68
2022/07/23 10:31:28;;;;;;;9.43;7.87;;;;;;;31.93;45.11;98647.97;5104524;28;20020;-68
2022/07/23 10:34:11;;;;;;;13.43;7.95;;;;;;;31.98;45.63;98645.59;5104291;28;20248;-68
2022/07/23 10:36:49;;;;;;;10.63;7.28;;;;;;;32.68;43.63;98656.09;5104331;28;20019;-68
2022/07/23 10:39:30;;;;;;;10.98;6.80;;;;;;;33.67;41.88;98659.56;5104189;28;20378;-69
2022/07/23 10:42:12;;;;;;;10.38;7.80;;;;;;;33.48;40.94;98654.47;5103640;28;20219;-69
2022/07/23 10:44:43;;;;;;;9.90;7.57;;;;;;;33.77;40.48;98660.22;5104264;28;20091;-69
2022/07/23 10:49:53;;;;;;;9.48;7.18;;;;;;;34.07;42.11;98667.69;5104098;28;20035;-69
2022/07/23 10:52:21;;;;;;;9.48;7.10;;;;;;;34.16;40.09;98653.81;5104299;28;20020;-69
2022/07/23 10:54:50;;;;;;;12.20;6.88;;;;;;;34.03;41.05;98656.25;5104048;28;20020;-69
2022/07/23 10:57:18;;;;;;;12.05;7.60;;;;;;;32.45;43.40;98652.28;5103946;28;20016;-69
2022/07/23 11:02:33;;;;;;;11.13;7.30;;;;;;;30.58;46.95;98653.97;5104173;28;20058;-69
2022/07/23 11:05:10;;;;;;;9.40;7.32;;;;;;;31.20;48.38;98659.34;5103960;28;20265;-69
2022/07/23 11:07:37;;;;;;;14.27;7.55;;;;;;;31.68;45.68;98643.38;5104145;28;20058;-69
2022/07/23 11:10:03;;;;;;;12.68;8.13;;;;;;;31.89;46.19;98649.28;5103901;28;20043;-69
2022/07/23 11:12:28;;;;;;;12.98;7.95;;;;;;;32.11;45.18;98661.50;5103807;28;20043;-69
2022/07/23 11:15:14;;;;;;;11.30;7.82;;;;;;;32.68;43.13;98642.44;5103865;28;20035;-69
2022/07/23 11:17:42;;;;;;;10.77;8.10;;;;;;;32.32;44.07;98649.16;5103805;28;20020;-69
2022/07/23 11:20:11;;;;;;;9.40;6.57;;;;;;;31.90;45.06;98647.44;5103866;28;20028;-69
2022/07/23 11:22:48;;;;;;;10.35;7.05;;;;;;;31.11;46.19;98643.97;5103963;28;20028;-69
2022/07/23 11:25:32;;;;;;;10.73;6.97;;;;;;;30.83;45.53;98655.94;5104011;28;20034;-68
2022/07/23 11:28:20;;;;;;;9.65;6.97;;;;;;;30.90;46.66;98646.16;5103548;28;20051;-68